createdAt,value
2022-10-26T00:01:22.055Z,100172.84
2022-10-26T00:03:51.358Z,100183.47
2022-10-26T00:06:20.221Z,100195.09
2022-10-26T00:08:48.386Z,100192.66
2022-10-26T00:11:16.480Z,100191.94
2022-10-26T00:13:44.444Z,100194.16
2022-10-26T00:16:13.343Z,100187.47
2022-10-26T00:18:41.284Z,100189.44
2022-10-26T00:21:11.989Z,100187.88
2022-10-26T00:23:40.014Z,100189.13
2022-10-26T00:26:07.903Z,100185.00
2022-10-26T00:28:35.782Z,100187.34
2022-10-26T00:31:03.757Z,100181.50
2022-10-26T00:33:31.725Z,100183.72
2022-10-26T00:35:59.561Z,100179.69
2022-10-26T00:38:28.813Z,100196.94
2022-10-26T00:43:36.577Z,100205.25
2022-10-26T00:46:04.592Z,100200.25
2022-10-26T00:48:34.842Z,100199.53
2022-10-26T00:51:04.315Z,100202.34
2022-10-26T00:53:33.584Z,100202.47
2022-10-26T00:56:01.472Z,100204.56
2022-10-26T00:58:29.365Z,100201.16
2022-10-26T01:00:57.274Z,100189.53
2022-10-26T01:03:26.220Z,100187.38
2022-10-26T01:05:54.277Z,100187.47
2022-10-26T01:08:22.176Z,100193.13
2022-10-26T01:10:51.491Z,100191.53
2022-10-26T01:13:19.403Z,100182.88
2022-10-26T01:15:50.945Z,100190.34
2022-10-26T01:18:21.801Z,100179.09
2022-10-26T01:21:10.360Z,100194.25
2022-10-26T01:23:40.480Z,100194.50
2022-10-26T01:26:29.962Z,100195.38
2022-10-26T01:29:31.616Z,100190.50
2022-10-26T01:32:03.072Z,100188.66
2022-10-26T01:34:33.509Z,100209.31
2022-10-26T01:37:03.698Z,100209.53
2022-10-26T01:39:35.491Z,100214.34
2022-10-26T01:42:03.368Z,100207.38
2022-10-26T01:44:32.879Z,100220.44
2022-10-26T01:47:02.085Z,100227.88
2022-10-26T01:49:31.899Z,100234.97
2022-10-26T01:51:59.771Z,100231.56
2022-10-26T01:54:28.778Z,100235.22
2022-10-26T01:56:57.134Z,100233.63
2022-10-26T01:59:42.841Z,100235.34
2022-10-26T02:02:29.753Z,100235.22
2022-10-26T02:05:11.943Z,100212.38
2022-10-26T02:07:42.243Z,100210.66
2022-10-26T02:10:14.007Z,100208.97
2022-10-26T02:12:45.055Z,100216.66
2022-10-26T02:15:16.234Z,100218.34
2022-10-26T02:17:47.786Z,100218.25
2022-10-26T02:20:18.044Z,100214.69
2022-10-26T02:22:48.173Z,100213.97
2022-10-26T02:25:18.533Z,100224.59
2022-10-26T02:27:50.542Z,100226.78
2022-10-26T02:30:18.600Z,100220.16
2022-10-26T02:32:49.231Z,100213.31
2022-10-26T02:35:17.145Z,100219.78
2022-10-26T02:37:45.027Z,100210.50
2022-10-26T02:40:15.094Z,100214.63
2022-10-26T02:42:43.641Z,100223.44
2022-10-26T02:45:12.702Z,100233.44
2022-10-26T02:47:40.552Z,100237.44
2022-10-26T02:50:10.640Z,100244.16
2022-10-26T02:52:41.281Z,100233.97
2022-10-26T02:55:10.610Z,100238.97
2022-10-26T02:57:39.811Z,100230.53
2022-10-26T03:00:08.788Z,100231.19
2022-10-26T03:02:36.953Z,100228.34
2022-10-26T03:05:14.259Z,100216.47
2022-10-26T03:07:42.163Z,100224.28
2022-10-26T03:10:11.129Z,100211.69
2022-10-26T03:12:39.174Z,100205.06
2022-10-26T03:15:07.878Z,100213.97
2022-10-26T03:17:35.742Z,100204.94
2022-10-26T03:20:03.693Z,100214.59
2022-10-26T03:22:32.934Z,100211.91
2022-10-26T03:25:00.875Z,100212.72
2022-10-26T03:27:28.773Z,100209.06
2022-10-26T03:29:57.850Z,100213.44
2022-10-26T03:32:25.816Z,100208.06
2022-10-26T03:34:53.716Z,100211.38
2022-10-26T03:37:21.564Z,100207.81
2022-10-26T03:39:50.836Z,100208.69
2022-10-26T03:42:18.711Z,100204.88
2022-10-26T03:44:47.212Z,100203.16
2022-10-26T03:47:15.051Z,100205.75
2022-10-26T03:49:42.917Z,100200.94
2022-10-26T03:52:10.809Z,100198.09
2022-10-26T03:54:38.677Z,100197.25
2022-10-26T03:57:07.910Z,100199.09
2022-10-26T03:59:35.759Z,100194.44
2022-10-26T04:02:03.581Z,100198.09
2022-10-26T04:04:31.552Z,100197.38
2022-10-26T04:06:59.478Z,100194.84
2022-10-26T04:09:27.335Z,100186.91
2022-10-26T04:11:55.235Z,100184.31
2022-10-26T04:14:24.928Z,100182.50
2022-10-26T04:16:52.770Z,100190.56
2022-10-26T04:19:21.169Z,100190.00
2022-10-26T04:21:49.049Z,100190.38
2022-10-26T04:24:16.941Z,100181.69
2022-10-26T04:26:45.445Z,100189.91
2022-10-26T04:29:13.807Z,100171.22
2022-10-26T04:34:12.796Z,100159.59
2022-10-26T04:36:40.938Z,100170.22
2022-10-26T04:39:08.831Z,100164.81
2022-10-26T04:41:36.819Z,100186.22
2022-10-26T04:44:04.699Z,100187.78
2022-10-26T04:46:32.567Z,100183.41
2022-10-26T04:49:01.853Z,100193.19
2022-10-26T04:51:29.713Z,100166.16
2022-10-26T04:53:58.230Z,100164.56
2022-10-26T04:56:26.109Z,100168.13
2022-10-26T04:58:54.996Z,100169.97
2022-10-26T05:01:22.936Z,100178.03
2022-10-26T05:03:51.565Z,100174.47
2022-10-26T05:06:20.808Z,100163.84
2022-10-26T05:08:48.678Z,100170.06
2022-10-26T05:11:16.557Z,100153.91
2022-10-26T05:13:44.445Z,100171.78
2022-10-26T05:16:12.300Z,100183.53
2022-10-26T05:18:40.244Z,100200.53
2022-10-26T05:21:08.152Z,100206.91
2022-10-26T05:23:37.390Z,100220.38
2022-10-26T05:26:05.785Z,100228.28
2022-10-26T05:28:33.646Z,100215.81
2022-10-26T05:31:01.529Z,100216.81
2022-10-26T05:33:29.421Z,100234.94
2022-10-26T05:35:57.469Z,100238.88
2022-10-26T05:41:01.264Z,100245.34
2022-10-26T05:43:29.664Z,100226.63
2022-10-26T05:45:57.570Z,100252.69
2022-10-26T05:48:25.456Z,100246.47
2022-10-26T05:50:53.364Z,100251.69
2022-10-26T05:53:21.229Z,100247.19
2022-10-26T05:55:49.728Z,100273.22
2022-10-26T05:58:19.724Z,100282.16
2022-10-26T06:00:53.698Z,100271.00
2022-10-26T06:03:28.187Z,100289.59
2022-10-26T06:05:57.324Z,100295.22
2022-10-26T06:08:26.551Z,100303.69
2022-10-26T06:10:55.093Z,100303.31
2022-10-26T06:13:25.018Z,100326.91
2022-10-26T06:16:02.430Z,100319.00
2022-10-26T06:18:35.357Z,100324.75
2022-10-26T06:21:12.033Z,100335.78
2022-10-26T06:23:44.874Z,100338.19
2022-10-26T06:26:17.448Z,100345.03
2022-10-26T06:28:51.766Z,100356.06
2022-10-26T06:31:19.648Z,100354.69
2022-10-26T06:33:47.534Z,100360.56
2022-10-26T06:36:21.771Z,100362.59
2022-10-26T06:38:49.909Z,100364.94
2022-10-26T06:41:19.049Z,100370.44
2022-10-26T06:43:49.146Z,100374.34
2022-10-26T06:46:23.568Z,100384.53
2022-10-26T06:48:55.174Z,100384.91
2022-10-26T06:51:23.161Z,100387.06
2022-10-26T06:53:54.039Z,100391.72
2022-10-26T06:56:24.251Z,100401.50
2022-10-26T06:58:53.818Z,100406.13
2022-10-26T07:01:21.763Z,100399.91
2022-10-26T07:03:49.763Z,100407.97
2022-10-26T07:06:20.592Z,100417.00
2022-10-26T07:08:48.577Z,100424.06
2022-10-26T07:11:16.546Z,100436.78
2022-10-26T07:13:44.389Z,100438.50
2022-10-26T07:16:13.658Z,100436.91
2022-10-26T07:18:41.602Z,100443.97
2022-10-26T07:21:10.494Z,100452.53
2022-10-26T07:23:38.409Z,100450.72
2022-10-26T07:26:06.597Z,100459.59
2022-10-26T07:28:36.548Z,100465.84
2022-10-26T07:31:05.606Z,100464.16
2022-10-26T07:33:36.946Z,100465.84
2022-10-26T07:36:10.993Z,100474.53
2022-10-26T07:38:38.948Z,100485.03
2022-10-26T07:41:07.078Z,100496.31
2022-10-26T07:43:34.963Z,100490.63
2022-10-26T07:46:02.928Z,100496.59
2022-10-26T07:48:30.798Z,100504.31
2022-10-26T07:51:03.095Z,100514.84
2022-10-26T07:53:31.224Z,100508.25
2022-10-26T07:55:59.183Z,100509.97
2022-10-26T07:58:27.352Z,100519.38
2022-10-26T08:00:55.309Z,100522.06
2022-10-26T08:03:23.211Z,100521.97
2022-10-26T08:05:53.929Z,100530.53
2022-10-26T08:08:23.241Z,100515.00
2022-10-26T08:10:53.960Z,100533.13
2022-10-26T08:13:21.789Z,100532.84
2022-10-26T08:15:49.691Z,100532.84
2022-10-26T08:18:17.571Z,100547.78
2022-10-26T08:20:45.417Z,100551.22
2022-10-26T08:23:13.311Z,100544.72
2022-10-26T08:25:42.585Z,100552.56
2022-10-26T08:28:10.461Z,100556.63
2022-10-26T08:30:38.362Z,100567.25
2022-10-26T08:33:07.010Z,100544.50
2022-10-26T08:35:35.158Z,100553.94
2022-10-26T08:38:03.033Z,100579.00
2022-10-26T08:40:32.484Z,100587.94
2022-10-26T08:43:04.707Z,100575.88
2022-10-26T08:45:37.156Z,100584.66
2022-10-26T08:48:07.286Z,100588.84
2022-10-26T08:50:40.473Z,100593.84
2022-10-26T08:53:14.152Z,100597.16
2022-10-26T08:55:44.534Z,100601.47
2022-10-26T08:58:15.750Z,100591.56
2022-10-26T09:00:43.668Z,100608.97
2022-10-26T09:03:15.157Z,100615.69
2022-10-26T09:05:55.789Z,100615.47
2022-10-26T09:08:28.688Z,100616.19
2022-10-26T09:10:59.612Z,100619.13
2022-10-26T09:13:33.279Z,100645.59
2022-10-26T09:16:03.915Z,100644.22
2022-10-26T09:18:42.390Z,100652.69
2022-10-26T09:21:14.274Z,100664.09
2022-10-26T09:23:49.993Z,100668.97
2022-10-26T09:26:31.014Z,100663.97
2022-10-26T09:29:02.723Z,100675.22
2022-10-26T09:31:30.613Z,100683.78
2022-10-26T09:33:58.465Z,100680.47
2022-10-26T09:36:26.349Z,100679.06
2022-10-26T09:38:57.357Z,100679.66
2022-10-26T09:41:29.602Z,100696.44
2022-10-26T09:44:04.342Z,100693.25
2022-10-26T09:46:33.190Z,100694.59
2022-10-26T09:51:31.279Z,100710.13
2022-10-26T09:54:00.951Z,100709.41
2022-10-26T09:56:28.799Z,100709.50
2022-10-26T09:58:59.742Z,100718.44
2022-10-26T10:01:35.620Z,100712.41
2022-10-26T10:04:20.321Z,100716.31
2022-10-26T10:06:48.768Z,100719.00
2022-10-26T10:09:17.309Z,100720.50
2022-10-26T10:11:46.022Z,100724.16
2022-10-26T10:14:17.718Z,100726.19
2022-10-26T10:16:54.721Z,100727.66
2022-10-26T10:19:24.809Z,100732.56
2022-10-26T10:21:53.433Z,100733.13
2022-10-26T10:24:25.825Z,100743.75
2022-10-26T10:27:04.200Z,100740.81
2022-10-26T10:29:32.933Z,100750.09
2022-10-26T10:32:03.445Z,100746.81
2022-10-26T10:34:31.804Z,100755.22
2022-10-26T10:37:00.448Z,100762.84
2022-10-26T10:39:40.251Z,100755.22
2022-10-26T10:42:15.667Z,100766.50
2022-10-26T10:44:43.575Z,100776.22
2022-10-26T10:47:20.745Z,100773.31
2022-10-26T10:49:52.866Z,100778.03
2022-10-26T10:52:25.160Z,100796.19
2022-10-26T10:54:53.718Z,100801.50
2022-10-26T10:57:25.619Z,100791.22
2022-10-26T10:59:59.041Z,100797.19
2022-10-26T11:03:14.159Z,100810.63
2022-10-26T11:05:55.250Z,100829.09
2022-10-26T11:08:27.084Z,100819.19
2022-10-26T11:11:01.227Z,100829.09
2022-10-26T11:13:32.234Z,100822.63
2022-10-26T11:16:01.803Z,100824.63
2022-10-26T11:18:32.910Z,100835.28
2022-10-26T11:21:03.557Z,100832.72
2022-10-26T11:23:36.029Z,100841.22
2022-10-26T11:26:07.273Z,100855.88
2022-10-26T11:28:40.264Z,100859.13
2022-10-26T11:31:11.060Z,100852.00
2022-10-26T11:33:42.533Z,100858.31
2022-10-26T11:36:11.216Z,100879.09
2022-10-26T11:38:52.788Z,100867.97
2022-10-26T11:41:25.851Z,100877.00
2022-10-26T11:43:56.128Z,100886.28
2022-10-26T11:46:25.429Z,100886.34
2022-10-26T11:48:56.976Z,100887.56
2022-10-26T11:51:34.984Z,100896.75
2022-10-26T11:54:04.811Z,100910.31
2022-10-26T11:56:34.138Z,100905.09
2022-10-26T12:01:34.997Z,100911.91
2022-10-26T12:04:04.279Z,100917.88
2022-10-26T12:06:32.833Z,100910.13
2022-10-26T12:09:04.187Z,100919.03
2022-10-26T12:11:37.616Z,100912.47
2022-10-26T12:14:08.684Z,100928.00
2022-10-26T12:16:44.230Z,100915.53
2022-10-26T12:19:17.084Z,100914.91
2022-10-26T12:21:45.023Z,100916.47
2022-10-26T12:24:28.901Z,100904.94
2022-10-26T12:26:56.982Z,100921.69
2022-10-26T12:29:37.324Z,100925.16
2022-10-26T12:32:23.525Z,100932.31
2022-10-26T12:35:05.997Z,100918.88
2022-10-26T12:37:37.102Z,100922.72
2022-10-26T12:40:43.230Z,100927.84
2022-10-26T12:43:37.094Z,100922.44
2022-10-26T12:46:41.425Z,100942.44
2022-10-26T12:50:00.146Z,100947.28
2022-10-26T12:52:47.983Z,100953.34
2022-10-26T12:55:44.837Z,100962.75
2022-10-26T12:58:32.562Z,100956.31
2022-10-26T13:01:33.989Z,100935.81
2022-10-26T13:04:58.432Z,100945.25
2022-10-26T13:07:26.506Z,100948.34
2022-10-26T13:10:02.160Z,100959.19
2022-10-26T13:12:37.625Z,100963.53
2022-10-26T13:15:07.546Z,100956.13
2022-10-26T13:20:15.352Z,100964.13
2022-10-26T13:22:46.374Z,100975.53
2022-10-26T13:25:22.428Z,100985.97
2022-10-26T13:27:59.831Z,100989.66
2022-10-26T13:30:46.405Z,100975.31
2022-10-26T13:33:34.112Z,100979.69
2022-10-26T13:36:03.121Z,100993.28
2022-10-26T13:38:33.693Z,100990.94
2022-10-26T13:41:07.367Z,100990.97
2022-10-26T13:43:35.275Z,100982.69
2022-10-26T13:46:04.703Z,100993.91
2022-10-26T13:48:39.063Z,101002.91
2022-10-26T13:51:13.365Z,101005.09
2022-10-26T13:53:42.801Z,101004.09
2022-10-26T13:56:17.396Z,101002.41
2022-10-26T13:58:47.127Z,101019.41
2022-10-26T14:01:16.842Z,101004.38
2022-10-26T14:03:45.045Z,101017.59
2022-10-26T14:06:17.162Z,101024.47
2022-10-26T14:08:46.344Z,101018.47
2022-10-26T14:11:16.779Z,101016.81
2022-10-26T14:13:44.722Z,101021.03
2022-10-26T14:16:17.364Z,101028.50
2022-10-26T14:18:46.300Z,101023.59
2022-10-26T14:21:16.174Z,101028.84
2022-10-26T14:23:48.191Z,101024.19
2022-10-26T14:26:24.581Z,101035.41
2022-10-26T14:28:53.476Z,101027.59
2022-10-26T14:31:26.204Z,101031.28
2022-10-26T14:33:54.179Z,101043.69
2022-10-26T14:36:24.082Z,101028.13
2022-10-26T14:38:54.669Z,101033.03
2022-10-26T14:41:24.112Z,101029.34
2022-10-26T14:43:52.043Z,101042.56
2022-10-26T14:46:20.623Z,101042.50
2022-10-26T14:48:53.457Z,101028.66
2022-10-26T14:51:22.334Z,101038.94
2022-10-26T14:53:51.066Z,101031.69
2022-10-26T14:56:29.789Z,101026.97
2022-10-26T14:58:58.307Z,101035.84
2022-10-26T15:01:36.016Z,101033.81
2022-10-26T15:04:05.562Z,101040.19
2022-10-26T15:06:41.636Z,101042.50
2022-10-26T15:09:30.938Z,101042.44
2022-10-26T15:12:00.372Z,101049.06
2022-10-26T15:14:28.263Z,101049.47
2022-10-26T15:16:57.489Z,101048.94
2022-10-26T15:19:25.474Z,101050.25
2022-10-26T15:21:53.482Z,101052.94
2022-10-26T15:24:29.520Z,101051.00
2022-10-26T15:27:00.909Z,101053.78
2022-10-26T15:29:38.842Z,101066.38
2022-10-26T15:32:07.558Z,101057.41
2022-10-26T15:34:35.484Z,101068.03
2022-10-26T15:37:09.853Z,101073.53
2022-10-26T15:39:37.869Z,101079.47
2022-10-26T15:42:07.271Z,101069.25
2022-10-26T15:44:35.156Z,101076.28
2022-10-26T15:49:36.488Z,101088.97
2022-10-26T15:54:33.157Z,101092.91
2022-10-26T15:57:01.960Z,101094.50
2022-10-26T15:59:31.326Z,101097.78
2022-10-26T16:01:59.302Z,101098.56
2022-10-26T16:04:27.276Z,101102.81
2022-10-26T16:06:58.916Z,101107.84
2022-10-26T16:09:26.830Z,101104.88
2022-10-26T16:11:54.714Z,101113.22
2022-10-26T16:14:22.585Z,101117.75
2022-10-26T16:16:51.841Z,101118.31
2022-10-26T16:19:31.407Z,101123.44
2022-10-26T16:21:59.754Z,101120.34
2022-10-26T16:24:27.754Z,101124.47
2022-10-26T16:26:55.771Z,101129.13
2022-10-26T16:29:24.263Z,101134.97
2022-10-26T16:31:53.537Z,101146.44
2022-10-26T16:34:21.426Z,101142.25
2022-10-26T16:36:49.314Z,101150.59
2022-10-26T16:39:17.462Z,101151.16
2022-10-26T16:41:45.333Z,101160.66
2022-10-26T16:44:13.664Z,101155.75
2022-10-26T16:46:41.646Z,101149.81
2022-10-26T16:49:11.198Z,101156.63
2022-10-26T16:51:39.082Z,101167.84
2022-10-26T16:54:07.214Z,101173.53
2022-10-26T16:56:35.271Z,101171.31
2022-10-26T16:59:03.158Z,101172.81
2022-10-26T17:01:31.281Z,101168.53
2022-10-26T17:04:00.975Z,101169.16
2022-10-26T17:06:30.265Z,101190.84
2022-10-26T17:08:58.254Z,101192.00
2022-10-26T17:11:26.388Z,101188.03
2022-10-26T17:13:54.609Z,101194.38
2022-10-26T17:16:23.597Z,101195.56
2022-10-26T17:18:51.699Z,101200.41
2022-10-26T17:21:20.449Z,101199.09
2022-10-26T17:23:49.738Z,101203.63
2022-10-26T17:26:17.600Z,101208.06
2022-10-26T17:28:46.166Z,101215.50
2022-10-26T17:31:15.152Z,101214.81
2022-10-26T17:33:44.590Z,101213.97
2022-10-26T17:36:13.336Z,101220.53
2022-10-26T17:38:41.978Z,101223.44
2022-10-26T17:41:11.771Z,101220.97
2022-10-26T17:43:40.549Z,101215.03
2022-10-26T17:46:09.257Z,101231.16
2022-10-26T17:48:37.130Z,101233.09
2022-10-26T17:51:06.381Z,101234.25
2022-10-26T17:53:34.344Z,101246.09
2022-10-26T17:56:02.940Z,101256.09
2022-10-26T17:58:32.227Z,101250.91
2022-10-26T18:01:01.737Z,101262.66
2022-10-26T18:03:29.678Z,101266.41
2022-10-26T18:05:57.560Z,101258.44
2022-10-26T18:08:25.489Z,101261.44
2022-10-26T18:10:55.244Z,101265.09
2022-10-26T18:13:23.170Z,101264.31
2022-10-26T18:15:52.433Z,101265.50
2022-10-26T18:18:20.322Z,101265.81
2022-10-26T18:20:48.243Z,101274.94
2022-10-26T18:23:16.213Z,101267.91
2022-10-26T18:25:44.138Z,101260.16
2022-10-26T18:30:45.222Z,101273.16
2022-10-26T18:33:14.517Z,101272.38
2022-10-26T18:35:42.456Z,101269.03
2022-10-26T18:38:10.365Z,101271.81
2022-10-26T18:40:38.374Z,101281.16
2022-10-26T18:43:06.358Z,101275.03
2022-10-26T18:45:34.352Z,101274.25
2022-10-26T18:48:02.252Z,101284.31
2022-10-26T18:50:31.616Z,101285.38
2022-10-26T18:52:59.533Z,101285.59
2022-10-26T18:55:27.401Z,101289.41
2022-10-26T18:57:55.328Z,101286.25
2022-10-26T19:00:23.541Z,101286.25
2022-10-26T19:02:52.548Z,101290.06
2022-10-26T19:05:20.703Z,101295.66
2022-10-26T19:07:50.056Z,101294.03
2022-10-26T19:10:18.068Z,101294.22
2022-10-26T19:12:45.939Z,101288.19
2022-10-26T19:15:13.856Z,101287.59
2022-10-26T19:17:41.772Z,101288.66
2022-10-26T19:20:12.842Z,101290.56
2022-10-26T19:22:40.776Z,101296.13
2022-10-26T19:25:11.202Z,101294.31
2022-10-26T19:27:39.154Z,101300.66
2022-10-26T19:30:08.081Z,101299.69
2022-10-26T19:32:36.043Z,101292.59
2022-10-26T19:35:03.930Z,101302.53
2022-10-26T19:37:32.534Z,101298.16
2022-10-26T19:40:01.080Z,101295.56
2022-10-26T19:42:30.369Z,101295.56
2022-10-26T19:44:58.264Z,101298.25
2022-10-26T19:47:26.116Z,101294.59
2022-10-26T19:49:53.981Z,101294.69
2022-10-26T19:52:21.932Z,101299.19
2022-10-26T19:54:49.838Z,101301.88
2022-10-26T19:57:17.760Z,101294.00
2022-10-26T19:59:47.076Z,101294.88
2022-10-26T20:02:14.960Z,101304.84
2022-10-26T20:04:42.915Z,101313.84
2022-10-26T20:07:10.984Z,101304.97
2022-10-26T20:09:40.286Z,101302.28
2022-10-26T20:12:12.627Z,101299.47
2022-10-26T20:14:40.614Z,101291.06
2022-10-26T20:17:09.985Z,101296.63
2022-10-26T20:19:37.859Z,101305.44
2022-10-26T20:22:05.764Z,101295.47
2022-10-26T20:24:33.753Z,101302.38
2022-10-26T20:27:01.671Z,101304.78
2022-10-26T20:29:29.556Z,101295.56
2022-10-26T20:31:59.283Z,101301.63
2022-10-26T20:37:01.611Z,101298.94
2022-10-26T20:39:30.016Z,101307.94
2022-10-26T20:41:58.612Z,101303.63
2022-10-26T20:44:28.215Z,101300.34
2022-10-26T20:46:56.608Z,101287.31
2022-10-26T20:49:25.195Z,101287.50
2022-10-26T20:52:19.947Z,101289.41
2022-10-26T20:54:47.624Z,101294.13
2022-10-26T20:57:18.122Z,101286.16
2022-10-26T20:59:47.549Z,101304.09
2022-10-26T21:02:15.779Z,101295.94
2022-10-26T21:04:43.741Z,101293.25
2022-10-26T21:07:13.027Z,101296.63
2022-10-26T21:09:41.034Z,101303.63
2022-10-26T21:12:09.137Z,101294.78
2022-10-26T21:14:40.744Z,101305.53
2022-10-26T21:17:08.851Z,101301.13
2022-10-26T21:19:36.770Z,101293.94
2022-10-26T21:22:04.819Z,101292.09
2022-10-26T21:24:34.150Z,101287.69
2022-10-26T21:27:02.036Z,101298.44
2022-10-26T21:29:29.964Z,101305.03
2022-10-26T21:31:57.861Z,101299.00
2022-10-26T21:34:25.767Z,101290.28
2022-10-26T21:36:53.609Z,101296.69
2022-10-26T21:39:21.527Z,101295.06
2022-10-26T21:41:50.865Z,101293.25
2022-10-26T21:44:40.592Z,101297.75
2022-10-26T21:47:06.748Z,101302.16
2022-10-26T21:49:34.685Z,101300.34
2022-10-26T21:52:02.602Z,101295.84
2022-10-26T21:54:30.487Z,101298.41
2022-10-26T21:56:59.790Z,101283.44
2022-10-26T21:59:27.641Z,101289.41
2022-10-26T22:01:55.596Z,101281.25
2022-10-26T22:04:23.718Z,101281.25
2022-10-26T22:06:51.611Z,101277.50
2022-10-26T22:09:19.550Z,101269.47
2022-10-26T22:11:47.439Z,101267.66
2022-10-26T22:14:16.771Z,101259.59
2022-10-26T22:16:44.702Z,101253.53
2022-10-26T22:19:12.605Z,101253.16
2022-10-26T22:21:41.911Z,101256.13
2022-10-26T22:24:09.804Z,101258.59
2022-10-26T22:26:37.811Z,101254.41
2022-10-26T22:29:05.780Z,101254.09
2022-10-26T22:31:35.656Z,101261.22
2022-10-26T22:34:07.385Z,101245.88
2022-10-26T22:36:36.153Z,101242.31
2022-10-26T22:39:04.210Z,101241.25
2022-10-26T22:41:32.069Z,101239.44
2022-10-26T22:43:59.988Z,101240.09
2022-10-26T22:46:28.529Z,101242.78
2022-10-26T22:48:58.448Z,101230.31
2022-10-26T22:51:27.048Z,101228.41
2022-10-26T22:53:55.092Z,101221.41
2022-10-26T22:56:23.208Z,101218.91
2022-10-26T22:58:52.030Z,101222.47
2022-10-26T23:01:21.375Z,101222.34
2022-10-26T23:03:49.438Z,101217.09
2022-10-26T23:06:19.247Z,101208.16
2022-10-26T23:08:47.200Z,101185.81
2022-10-26T23:11:16.221Z,101195.41
2022-10-26T23:13:44.104Z,101199.94
2022-10-26T23:16:13.211Z,101185.34
2022-10-26T23:18:41.281Z,101190.53
2022-10-26T23:21:09.720Z,101192.22
2022-10-26T23:23:38.971Z,101186.75
2022-10-26T23:26:07.903Z,101181.31
2022-10-26T23:28:35.812Z,101181.31
2022-10-26T23:31:03.708Z,101189.34
2022-10-26T23:33:31.589Z,101186.66
2022-10-26T23:35:59.632Z,101187.50
2022-10-26T23:38:27.508Z,101189.25
2022-10-26T23:40:57.275Z,101186.56
2022-10-26T23:43:25.289Z,101200.88
2022-10-26T23:45:53.188Z,101188.19
2022-10-26T23:48:21.111Z,101189.13
2022-10-26T23:50:49.613Z,101191.75
2022-10-26T23:53:18.630Z,101184.63
2022-10-26T23:55:46.551Z,101178.31
2022-10-26T23:58:16.284Z,101182.06
